createdAt,value
2022-10-13T00:03:54.895Z,5.28
2022-10-13T00:09:17.544Z,5.24
2022-10-13T00:14:39.143Z,5.15
2022-10-13T00:20:01.091Z,5.06
2022-10-13T00:25:22.714Z,5.01
2022-10-13T00:30:45.176Z,4.98
2022-10-13T00:36:07.105Z,4.97
2022-10-13T00:41:28.906Z,4.98
2022-10-13T00:46:50.331Z,5.03
2022-10-13T00:52:13.471Z,5.11
2022-10-13T00:57:36.596Z,5.20
2022-10-13T01:02:58.666Z,5.22
2022-10-13T01:08:21.530Z,5.19
2022-10-13T01:14:06.470Z,5.23
2022-10-13T01:19:59.006Z,5.51
2022-10-13T01:25:44.520Z,5.67
2022-10-13T01:31:32.640Z,5.71
2022-10-13T01:37:03.733Z,5.58
2022-10-13T01:42:34.686Z,5.37
2022-10-13T01:47:59.812Z,5.32
2022-10-13T01:53:21.832Z,5.44
2022-10-13T01:58:50.585Z,5.62
2022-10-13T02:04:31.691Z,5.65
2022-10-13T02:09:53.617Z,5.67
2022-10-13T02:15:19.384Z,5.66
2022-10-13T02:20:41.985Z,5.56
2022-10-13T02:26:04.126Z,5.46
2022-10-13T02:31:25.660Z,5.54
2022-10-13T02:36:48.075Z,5.64
2022-10-13T02:42:10.509Z,5.66
2022-10-13T02:47:32.304Z,5.58
2022-10-13T02:52:54.472Z,5.50
2022-10-13T02:58:15.992Z,5.45
2022-10-13T03:03:38.323Z,5.58
2022-10-13T03:09:00.274Z,5.63
2022-10-13T03:14:22.286Z,5.42
2022-10-13T03:19:44.110Z,5.13
2022-10-13T03:25:07.935Z,4.82
2022-10-13T03:30:30.353Z,4.80
2022-10-13T03:35:52.309Z,4.90
2022-10-13T03:41:16.706Z,4.80
2022-10-13T03:46:39.681Z,4.95
2022-10-13T03:52:05.926Z,5.03
2022-10-13T03:57:27.854Z,4.81
2022-10-13T04:02:49.781Z,4.99
2022-10-13T04:08:12.458Z,5.16
2022-10-13T04:13:34.947Z,5.22
2022-10-13T04:19:01.492Z,4.97
2022-10-13T04:24:23.872Z,4.83
2022-10-13T04:29:45.851Z,4.89
2022-10-13T04:35:07.991Z,5.00
2022-10-13T04:40:29.609Z,5.14
2022-10-13T04:45:51.542Z,5.01
2022-10-13T04:51:15.928Z,4.92
2022-10-13T04:56:37.409Z,4.84
2022-10-13T05:01:58.837Z,4.65
2022-10-13T05:07:20.259Z,4.71
2022-10-13T05:12:41.987Z,4.61
2022-10-13T05:18:04.029Z,4.66
2022-10-13T05:23:25.862Z,4.57
2022-10-13T05:28:47.308Z,4.47
2022-10-13T05:34:09.608Z,4.54
2022-10-13T05:39:31.434Z,4.71
2022-10-13T05:44:53.264Z,4.93
2022-10-13T05:50:14.668Z,5.00
2022-10-13T05:55:36.474Z,5.09
2022-10-13T06:00:59.397Z,5.27
2022-10-13T06:06:22.711Z,5.45
2022-10-13T06:11:44.422Z,5.67
2022-10-13T06:17:07.074Z,5.81
2022-10-13T06:22:28.933Z,5.93
2022-10-13T06:27:51.116Z,5.86
2022-10-13T06:33:12.937Z,5.82
2022-10-13T06:38:34.550Z,6.17
2022-10-13T06:43:56.493Z,6.46
2022-10-13T06:49:18.223Z,6.67
2022-10-13T06:54:40.050Z,6.94
2022-10-13T07:00:02.581Z,7.30
2022-10-13T07:05:24.212Z,7.65
2022-10-13T07:10:45.938Z,7.78
2022-10-13T07:16:08.812Z,7.99
2022-10-13T07:21:30.600Z,8.23
2022-10-13T07:26:52.439Z,8.49
2022-10-13T07:32:14.159Z,8.79
2022-10-13T07:37:36.521Z,8.96
2022-10-13T07:42:57.953Z,9.15
2022-10-13T07:48:19.928Z,9.42
2022-10-13T07:53:42.547Z,9.59
2022-10-13T07:59:05.475Z,9.68
2022-10-13T08:04:31.423Z,9.92
2022-10-13T08:09:53.129Z,10.18
2022-10-13T08:15:14.813Z,10.49
2022-10-13T08:20:43.869Z,10.57
2022-10-13T08:26:06.042Z,10.65
2022-10-13T08:31:28.375Z,10.79
2022-10-13T08:36:53.748Z,10.97
2022-10-13T08:42:19.145Z,11.18
2022-10-13T08:47:48.862Z,11.34
2022-10-13T08:53:27.766Z,11.60
2022-10-13T08:58:51.154Z,11.81
2022-10-13T09:04:33.243Z,12.05
2022-10-13T09:09:56.106Z,12.29
2022-10-13T09:15:19.817Z,12.52
2022-10-13T09:20:41.722Z,12.73
2022-10-13T09:26:09.497Z,12.91
2022-10-13T09:31:33.218Z,13.00
2022-10-13T09:37:04.281Z,13.10
2022-10-13T09:42:27.895Z,13.33
2022-10-13T09:47:55.311Z,13.54
2022-10-13T09:53:32.370Z,13.69
2022-10-13T09:59:06.171Z,13.89
2022-10-13T10:04:36.682Z,14.06
2022-10-13T10:10:02.243Z,14.17
2022-10-13T10:15:30.020Z,14.37
2022-10-13T10:20:59.275Z,14.63
2022-10-13T10:26:32.336Z,14.86
2022-10-13T10:32:22.787Z,15.03
2022-10-13T10:38:13.698Z,15.17
2022-10-13T10:43:51.814Z,15.33
2022-10-13T10:49:30.833Z,15.53
2022-10-13T10:55:19.117Z,15.68
2022-10-13T11:01:08.344Z,15.73
2022-10-13T11:06:38.282Z,15.79
2022-10-13T11:12:00.308Z,15.90
2022-10-13T11:17:32.211Z,16.00
2022-10-13T11:23:00.037Z,16.07
2022-10-13T11:28:22.033Z,16.23
2022-10-13T11:33:44.739Z,16.39
2022-10-13T11:39:06.264Z,16.54
2022-10-13T11:44:37.603Z,16.64
2022-10-13T11:50:08.242Z,16.48
2022-10-13T11:55:44.808Z,16.57
2022-10-13T12:01:12.907Z,16.70
2022-10-13T12:06:35.785Z,16.89
2022-10-13T12:12:19.052Z,17.06
2022-10-13T12:17:44.587Z,17.20
2022-10-13T12:23:16.982Z,17.28
2022-10-13T12:28:55.949Z,17.29
2022-10-13T12:34:22.170Z,17.27
2022-10-13T12:39:43.674Z,17.26
2022-10-13T12:45:06.239Z,17.11
2022-10-13T12:50:28.228Z,16.99
2022-10-13T12:55:59.214Z,16.89
2022-10-13T13:01:29.347Z,16.85
2022-10-13T13:07:01.372Z,16.78
2022-10-13T13:12:27.235Z,16.77
2022-10-13T13:18:04.064Z,16.87
2022-10-13T13:23:33.251Z,16.88
2022-10-13T13:28:56.331Z,16.90
2022-10-13T13:34:21.105Z,16.92
2022-10-13T13:39:45.163Z,16.90
2022-10-13T13:45:07.196Z,16.80
2022-10-13T13:50:35.114Z,16.80
2022-10-13T13:55:57.079Z,16.78
2022-10-13T14:01:18.773Z,16.75
2022-10-13T14:06:40.365Z,16.69
2022-10-13T14:12:02.281Z,16.64
2022-10-13T14:17:25.198Z,16.63
2022-10-13T14:22:46.827Z,16.58
2022-10-13T14:28:08.197Z,16.51
2022-10-13T14:33:30.326Z,16.47
2022-10-13T14:38:51.802Z,16.37
2022-10-13T14:44:14.124Z,16.30
2022-10-13T14:49:40.008Z,16.23
2022-10-13T14:55:01.643Z,16.15
2022-10-13T15:00:23.365Z,16.08
2022-10-13T15:05:45.184Z,16.00
2022-10-13T15:11:06.719Z,15.90
2022-10-13T15:16:31.380Z,15.76
2022-10-13T15:21:53.467Z,15.65
2022-10-13T15:27:15.592Z,15.52
2022-10-13T15:32:37.610Z,15.41
2022-10-13T15:37:59.347Z,15.19
2022-10-13T15:43:20.938Z,15.03
2022-10-13T15:48:42.404Z,14.86
2022-10-13T15:54:04.031Z,14.67
2022-10-13T15:59:25.918Z,14.49
2022-10-13T16:04:47.424Z,14.32
2022-10-13T16:10:12.185Z,14.18
2022-10-13T16:15:34.206Z,14.05
2022-10-13T16:20:56.439Z,13.97
2022-10-13T16:26:18.601Z,13.85
2022-10-13T16:31:40.510Z,13.75
2022-10-13T16:37:02.368Z,13.68
2022-10-13T16:42:24.156Z,13.64
2022-10-13T16:47:51.104Z,13.61
2022-10-13T16:53:12.636Z,13.67
2022-10-13T16:58:35.146Z,13.65
2022-10-13T17:03:58.494Z,13.62
2022-10-13T17:09:20.226Z,13.61
2022-10-13T17:14:41.696Z,13.60
2022-10-13T17:20:04.457Z,13.66
2022-10-13T17:25:26.113Z,13.73
2022-10-13T17:30:59.677Z,13.69
2022-10-13T17:36:29.849Z,13.70
2022-10-13T17:41:51.717Z,13.84
2022-10-13T17:47:13.290Z,13.93
2022-10-13T17:52:34.825Z,14.02
2022-10-13T17:57:57.061Z,13.97
2022-10-13T18:03:19.165Z,13.80
2022-10-13T18:08:40.964Z,13.64
2022-10-13T18:14:02.985Z,13.52
2022-10-13T18:19:24.568Z,13.42
2022-10-13T18:24:46.676Z,13.34
2022-10-13T18:30:10.107Z,13.29
2022-10-13T18:35:32.437Z,13.38
2022-10-13T18:40:54.580Z,13.48
2022-10-13T18:46:16.252Z,13.47
2022-10-13T18:51:40.794Z,13.42
2022-10-13T18:57:02.695Z,13.38
2022-10-13T19:02:24.288Z,13.22
2022-10-13T19:07:45.851Z,13.06
2022-10-13T19:13:07.881Z,12.98
2022-10-13T19:18:29.527Z,12.96
2022-10-13T19:23:52.079Z,13.01
2022-10-13T19:29:14.915Z,13.03
2022-10-13T19:34:37.136Z,12.92
2022-10-13T19:40:00.038Z,12.76
2022-10-13T19:45:22.770Z,12.62
2022-10-13T19:50:44.420Z,12.46
2022-10-13T19:56:08.560Z,12.30
2022-10-13T20:01:31.028Z,12.19
2022-10-13T20:06:52.667Z,12.17
2022-10-13T20:12:14.624Z,12.16
2022-10-13T20:17:37.293Z,12.10
2022-10-13T20:22:59.192Z,12.09
2022-10-13T20:28:21.160Z,12.02
2022-10-13T20:33:42.951Z,11.98
2022-10-13T20:39:04.474Z,11.98
2022-10-13T20:44:26.430Z,12.03
2022-10-13T20:49:48.294Z,12.08
2022-10-13T20:55:10.688Z,12.09
2022-10-13T21:00:32.744Z,12.07
2022-10-13T21:05:55.426Z,12.01
2022-10-13T21:11:18.658Z,11.96
2022-10-13T21:16:40.412Z,11.89
2022-10-13T21:22:03.726Z,11.81
2022-10-13T21:27:25.451Z,11.75
2022-10-13T21:32:46.863Z,11.59
2022-10-13T21:38:08.705Z,11.42
2022-10-13T21:43:31.839Z,11.35
2022-10-13T21:48:59.734Z,11.37
2022-10-13T21:54:21.518Z,11.42
2022-10-13T21:59:43.295Z,11.49
2022-10-13T22:05:06.070Z,11.50
2022-10-13T22:10:27.611Z,11.29
2022-10-13T22:15:49.534Z,11.21
2022-10-13T22:21:17.285Z,11.26
2022-10-13T22:26:41.350Z,11.46
2022-10-13T22:32:03.352Z,11.57
2022-10-13T22:37:24.959Z,11.58
2022-10-13T22:42:46.520Z,11.62
2022-10-13T22:48:11.352Z,11.61
2022-10-13T22:53:34.181Z,11.39
2022-10-13T22:59:02.448Z,11.27
2022-10-13T23:04:24.063Z,11.12
2022-10-13T23:09:45.581Z,10.85
2022-10-13T23:15:08.523Z,10.73
2022-10-13T23:20:30.850Z,10.80
2022-10-13T23:25:52.779Z,10.76
2022-10-13T23:31:15.815Z,10.79
2022-10-13T23:36:37.279Z,10.80
2022-10-13T23:41:59.378Z,10.87
2022-10-13T23:47:21.483Z,11.05
2022-10-13T23:52:43.131Z,11.04
2022-10-13T23:58:04.960Z,11.11
